sensor_id;sensor_type;location;lat;lon;timestamp;temperature;humidity
6110;DHT22;3085;49.444;11.054;2022-11-20T00:00:16;2.60;99.90
6110;DHT22;3085;49.444;11.054;2022-11-20T00:02:43;2.60;99.90
6110;DHT22;3085;49.444;11.054;2022-11-20T00:05:09;2.60;99.90
6110;DHT22;3085;49.444;11.054;2022-11-20T00:07:36;2.70;99.90
6110;DHT22;3085;49.444;11.054;2022-11-20T00:10:05;2.60;99.90
6110;DHT22;3085;49.444;11.054;2022-11-20T00:12:32;2.70;99.90
6110;DHT22;3085;49.444;11.054;2022-11-20T00:14:59;2.70;99.90
6110;DHT22;3085;49.444;11.054;2022-11-20T00:17:26;2.60;99.90
6110;DHT22;3085;49.444;11.054;2022-11-20T00:19:52;2.60;99.90
6110;DHT22;3085;49.444;11.054;2022-11-20T00:22:19;2.70;99.90
6110;DHT22;3085;49.444;11.054;2022-11-20T00:24:46;2.70;99.90
6110;DHT22;3085;49.444;11.054;2022-11-20T00:27:14;2.70;99.90
6110;DHT22;3085;49.444;11.054;2022-11-20T00:29:41;2.60;99.90
6110;DHT22;3085;49.444;11.054;2022-11-20T00:32:08;2.70;99.90
6110;DHT22;3085;49.444;11.054;2022-11-20T00:34:35;2.70;99.90
6110;DHT22;3085;49.444;11.054;2022-11-20T00:37:02;2.70;99.90
6110;DHT22;3085;49.444;11.054;2022-11-20T00:39:28;2.70;99.90
6110;DHT22;3085;49.444;11.054;2022-11-20T00:41:55;2.70;99.90
6110;DHT22;3085;49.444;11.054;2022-11-20T00:44:23;2.70;99.90
6110;DHT22;3085;49.444;11.054;2022-11-20T00:46:50;2.70;99.90
6110;DHT22;3085;49.444;11.054;2022-11-20T00:49:17;2.60;99.90
6110;DHT22;3085;49.444;11.054;2022-11-20T00:51:43;2.50;99.90
6110;DHT22;3085;49.444;11.054;2022-11-20T00:54:10;2.60;99.90
6110;DHT22;3085;49.444;11.054;2022-11-20T00:56:37;2.70;99.90
6110;DHT22;3085;49.444;11.054;2022-11-20T00:59:04;2.60;99.90
6110;DHT22;3085;49.444;11.054;2022-11-20T01:01:32;2.60;99.90
6110;DHT22;3085;49.444;11.054;2022-11-20T01:04:00;2.60;99.90
6110;DHT22;3085;49.444;11.054;2022-11-20T01:06:28;2.60;99.90
6110;DHT22;3085;49.444;11.054;2022-11-20T01:08:57;2.70;99.90
6110;DHT22;3085;49.444;11.054;2022-11-20T01:11:26;2.70;99.90
6110;DHT22;3085;49.444;11.054;2022-11-20T01:13:55;2.60;99.90
6110;DHT22;3085;49.444;11.054;2022-11-20T01:16:24;2.60;99.90
6110;DHT22;3085;49.444;11.054;2022-11-20T01:18:54;2.50;99.90
6110;DHT22;3085;49.444;11.054;2022-11-20T01:21:24;2.80;99.90
6110;DHT22;3085;49.444;11.054;2022-11-20T01:23:51;2.60;99.90
6110;DHT22;3085;49.444;11.054;2022-11-20T01:26:21;2.60;99.90
6110;DHT22;3085;49.444;11.054;2022-11-20T01:28:49;2.50;99.90
6110;DHT22;3085;49.444;11.054;2022-11-20T01:31:18;2.60;99.90
6110;DHT22;3085;49.444;11.054;2022-11-20T01:33:46;2.70;99.90
6110;DHT22;3085;49.444;11.054;2022-11-20T01:36:15;2.70;99.90
6110;DHT22;3085;49.444;11.054;2022-11-20T01:38:42;2.70;99.90
6110;DHT22;3085;49.444;11.054;2022-11-20T01:41:11;2.60;99.90
6110;DHT22;3085;49.444;11.054;2022-11-20T01:43:59;2.60;99.90
6110;DHT22;3085;49.444;11.054;2022-11-20T01:46:25;2.60;99.90
6110;DHT22;3085;49.444;11.054;2022-11-20T01:48:56;2.70;99.90
6110;DHT22;3085;49.444;11.054;2022-11-20T01:51:29;2.70;99.90
6110;DHT22;3085;49.444;11.054;2022-11-20T01:54:00;1.80;99.90
6110;DHT22;3085;49.444;11.054;2022-11-20T01:56:29;2.70;99.90
6110;DHT22;3085;49.444;11.054;2022-11-20T01:58:59;2.60;99.90
6110;DHT22;3085;49.444;11.054;2022-11-20T02:01:28;2.70;99.90
6110;DHT22;3085;49.444;11.054;2022-11-20T02:03:54;2.60;99.90
6110;DHT22;3085;49.444;11.054;2022-11-20T02:06:24;2.70;99.90
6110;DHT22;3085;49.444;11.054;2022-11-20T02:08:54;2.80;99.90
6110;DHT22;3085;49.444;11.054;2022-11-20T02:11:21;2.80;99.90
6110;DHT22;3085;49.444;11.054;2022-11-20T02:13:48;2.80;99.90
6110;DHT22;3085;49.444;11.054;2022-11-20T02:16:21;2.70;99.90
6110;DHT22;3085;49.444;11.054;2022-11-20T02:18:49;2.70;99.90
6110;DHT22;3085;49.444;11.054;2022-11-20T02:21:30;2.70;99.90
6110;DHT22;3085;49.444;11.054;2022-11-20T02:24:08;2.70;99.90
6110;DHT22;3085;49.444;11.054;2022-11-20T02:26:44;2.80;99.90
6110;DHT22;3085;49.444;11.054;2022-11-20T02:29:14;2.80;99.90
6110;DHT22;3085;49.444;11.054;2022-11-20T02:31:43;2.80;99.90
6110;DHT22;3085;49.444;11.054;2022-11-20T02:34:10;2.80;99.90
6110;DHT22;3085;49.444;11.054;2022-11-20T02:36:39;2.80;99.90
6110;DHT22;3085;49.444;11.054;2022-11-20T02:39:10;2.80;99.90
6110;DHT22;3085;49.444;11.054;2022-11-20T02:41:38;2.80;99.90
6110;DHT22;3085;49.444;11.054;2022-11-20T02:44:05;2.90;99.90
6110;DHT22;3085;49.444;11.054;2022-11-20T02:46:33;2.80;99.90
6110;DHT22;3085;49.444;11.054;2022-11-20T02:49:01;2.80;99.90
6110;DHT22;3085;49.444;11.054;2022-11-20T02:51:28;2.90;99.90
6110;DHT22;3085;49.444;11.054;2022-11-20T02:53:55;2.90;99.90
6110;DHT22;3085;49.444;11.054;2022-11-20T02:56:23;2.90;99.90
6110;DHT22;3085;49.444;11.054;2022-11-20T02:58:50;2.80;99.90
6110;DHT22;3085;49.444;11.054;2022-11-20T03:01:17;2.80;99.90
6110;DHT22;3085;49.444;11.054;2022-11-20T03:03:44;2.80;99.90
6110;DHT22;3085;49.444;11.054;2022-11-20T03:06:11;2.80;99.90
6110;DHT22;3085;49.444;11.054;2022-11-20T03:08:37;2.80;99.90
6110;DHT22;3085;49.444;11.054;2022-11-20T03:11:05;2.80;99.90
6110;DHT22;3085;49.444;11.054;2022-11-20T03:13:35;2.80;99.90
6110;DHT22;3085;49.444;11.054;2022-11-20T03:16:09;2.80;99.90
6110;DHT22;3085;49.444;11.054;2022-11-20T03:18:37;2.80;99.90
6110;DHT22;3085;49.444;11.054;2022-11-20T03:21:04;3.20;99.90
6110;DHT22;3085;49.444;11.054;2022-11-20T03:23:31;2.90;99.90
6110;DHT22;3085;49.444;11.054;2022-11-20T03:26:09;2.90;99.90
6110;DHT22;3085;49.444;11.054;2022-11-20T03:28:38;3.00;99.90
6110;DHT22;3085;49.444;11.054;2022-11-20T03:31:06;2.90;99.90
6110;DHT22;3085;49.444;11.054;2022-11-20T03:33:33;2.90;99.90
6110;DHT22;3085;49.444;11.054;2022-11-20T03:36:02;3.00;99.90
6110;DHT22;3085;49.444;11.054;2022-11-20T03:38:30;2.90;99.90
6110;DHT22;3085;49.444;11.054;2022-11-20T03:41:01;2.90;99.90
6110;DHT22;3085;49.444;11.054;2022-11-20T03:43:28;3.60;99.90
6110;DHT22;3085;49.444;11.054;2022-11-20T03:45:57;2.90;99.90
6110;DHT22;3085;49.444;11.054;2022-11-20T03:48:23;2.90;99.90
6110;DHT22;3085;49.444;11.054;2022-11-20T03:50:51;3.60;99.90
6110;DHT22;3085;49.444;11.054;2022-11-20T03:53:18;2.90;99.90
6110;DHT22;3085;49.444;11.054;2022-11-20T03:55:50;2.90;99.90
6110;DHT22;3085;49.444;11.054;2022-11-20T03:58:18;2.90;99.90
6110;DHT22;3085;49.444;11.054;2022-11-20T04:00:45;2.90;99.90
6110;DHT22;3085;49.444;11.054;2022-11-20T04:03:13;2.80;99.90
6110;DHT22;3085;49.444;11.054;2022-11-20T04:05:40;2.80;99.90
6110;DHT22;3085;49.444;11.054;2022-11-20T04:08:07;2.90;99.90
6110;DHT22;3085;49.444;11.054;2022-11-20T04:10:34;2.80;99.90
6110;DHT22;3085;49.444;11.054;2022-11-20T04:13:01;2.90;99.90
6110;DHT22;3085;49.444;11.054;2022-11-20T04:15:28;2.90;99.90
6110;DHT22;3085;49.444;11.054;2022-11-20T04:17:55;2.90;99.90
6110;DHT22;3085;49.444;11.054;2022-11-20T04:20:23;2.90;99.90
6110;DHT22;3085;49.444;11.054;2022-11-20T04:22:53;2.80;99.90
6110;DHT22;3085;49.444;11.054;2022-11-20T04:25:20;2.90;99.90
6110;DHT22;3085;49.444;11.054;2022-11-20T04:27:47;2.80;99.90
6110;DHT22;3085;49.444;11.054;2022-11-20T04:30:14;2.80;99.90
6110;DHT22;3085;49.444;11.054;2022-11-20T04:32:41;2.90;99.90
6110;DHT22;3085;49.444;11.054;2022-11-20T04:35:08;2.80;99.90
6110;DHT22;3085;49.444;11.054;2022-11-20T04:37:36;2.80;99.90
6110;DHT22;3085;49.444;11.054;2022-11-20T04:40:04;2.80;99.90
6110;DHT22;3085;49.444;11.054;2022-11-20T04:42:31;2.80;99.90
6110;DHT22;3085;49.444;11.054;2022-11-20T04:44:58;2.80;99.90
6110;DHT22;3085;49.444;11.054;2022-11-20T04:47:25;2.80;99.90
6110;DHT22;3085;49.444;11.054;2022-11-20T04:49:52;2.90;99.90
6110;DHT22;3085;49.444;11.054;2022-11-20T04:52:18;2.80;99.90
6110;DHT22;3085;49.444;11.054;2022-11-20T04:54:47;2.80;99.90
6110;DHT22;3085;49.444;11.054;2022-11-20T04:57:14;2.80;99.90
6110;DHT22;3085;49.444;11.054;2022-11-20T04:59:41;2.80;99.90
6110;DHT22;3085;49.444;11.054;2022-11-20T05:02:09;2.90;99.90
6110;DHT22;3085;49.444;11.054;2022-11-20T05:04:36;2.90;99.90
6110;DHT22;3085;49.444;11.054;2022-11-20T05:07:04;2.80;99.90
6110;DHT22;3085;49.444;11.054;2022-11-20T05:09:30;2.80;99.90
6110;DHT22;3085;49.444;11.054;2022-11-20T05:11:59;2.90;99.90
6110;DHT22;3085;49.444;11.054;2022-11-20T05:14:26;2.70;99.90
6110;DHT22;3085;49.444;11.054;2022-11-20T05:16:52;2.70;99.90
6110;DHT22;3085;49.444;11.054;2022-11-20T05:19:19;2.70;99.90
6110;DHT22;3085;49.444;11.054;2022-11-20T05:21:46;2.80;99.90
6110;DHT22;3085;49.444;11.054;2022-11-20T05:24:13;3.30;99.90
6110;DHT22;3085;49.444;11.054;2022-11-20T05:26:40;2.80;99.90
6110;DHT22;3085;49.444;11.054;2022-11-20T05:29:09;2.80;99.90
6110;DHT22;3085;49.444;11.054;2022-11-20T05:31:38;2.90;99.90
6110;DHT22;3085;49.444;11.054;2022-11-20T05:34:05;3.00;99.90
6110;DHT22;3085;49.444;11.054;2022-11-20T05:36:32;2.90;99.90
6110;DHT22;3085;49.444;11.054;2022-11-20T05:38:58;2.90;99.90
6110;DHT22;3085;49.444;11.054;2022-11-20T05:41:25;2.80;99.90
6110;DHT22;3085;49.444;11.054;2022-11-20T05:43:52;2.70;99.90
6110;DHT22;3085;49.444;11.054;2022-11-20T05:46:21;2.80;99.90
6110;DHT22;3085;49.444;11.054;2022-11-20T05:48:48;2.80;99.90
6110;DHT22;3085;49.444;11.054;2022-11-20T05:51:16;2.80;99.90
6110;DHT22;3085;49.444;11.054;2022-11-20T05:53:44;2.90;99.90
6110;DHT22;3085;49.444;11.054;2022-11-20T05:56:13;2.80;99.90
6110;DHT22;3085;49.444;11.054;2022-11-20T05:58:40;2.70;99.90
6110;DHT22;3085;49.444;11.054;2022-11-20T06:01:09;2.70;99.90
6110;DHT22;3085;49.444;11.054;2022-11-20T06:03:39;3.00;99.90
6110;DHT22;3085;49.444;11.054;2022-11-20T06:06:06;2.70;99.90
6110;DHT22;3085;49.444;11.054;2022-11-20T06:08:33;2.70;99.90
6110;DHT22;3085;49.444;11.054;2022-11-20T06:11:03;2.70;99.90
6110;DHT22;3085;49.444;11.054;2022-11-20T06:13:30;2.90;99.90
6110;DHT22;3085;49.444;11.054;2022-11-20T06:15:57;2.90;99.90
6110;DHT22;3085;49.444;11.054;2022-11-20T06:18:26;2.90;99.90
6110;DHT22;3085;49.444;11.054;2022-11-20T06:21:01;3.00;99.90
6110;DHT22;3085;49.444;11.054;2022-11-20T06:23:29;2.90;99.90
6110;DHT22;3085;49.444;11.054;2022-11-20T06:25:56;2.90;99.90
6110;DHT22;3085;49.444;11.054;2022-11-20T06:28:22;2.90;99.90
6110;DHT22;3085;49.444;11.054;2022-11-20T06:30:49;2.90;99.90
6110;DHT22;3085;49.444;11.054;2022-11-20T06:33:16;3.00;99.90
6110;DHT22;3085;49.444;11.054;2022-11-20T06:35:43;3.00;99.90
6110;DHT22;3085;49.444;11.054;2022-11-20T06:38:11;2.90;99.90
6110;DHT22;3085;49.444;11.054;2022-11-20T06:40:40;3.00;99.90
6110;DHT22;3085;49.444;11.054;2022-11-20T06:43:07;3.00;99.90
6110;DHT22;3085;49.444;11.054;2022-11-20T06:45:34;3.00;99.90
6110;DHT22;3085;49.444;11.054;2022-11-20T06:48:01;3.00;99.90
6110;DHT22;3085;49.444;11.054;2022-11-20T06:50:28;3.00;99.90
6110;DHT22;3085;49.444;11.054;2022-11-20T06:52:55;3.10;99.90
6110;DHT22;3085;49.444;11.054;2022-11-20T06:55:24;3.10;99.90
6110;DHT22;3085;49.444;11.054;2022-11-20T06:57:51;3.10;99.90
6110;DHT22;3085;49.444;11.054;2022-11-20T07:00:18;3.10;99.90
6110;DHT22;3085;49.444;11.054;2022-11-20T07:02:45;3.10;99.90
6110;DHT22;3085;49.444;11.054;2022-11-20T07:05:12;3.20;99.90
6110;DHT22;3085;49.444;11.054;2022-11-20T07:07:39;3.10;99.90
6110;DHT22;3085;49.444;11.054;2022-11-20T07:10:07;3.20;99.90
6110;DHT22;3085;49.444;11.054;2022-11-20T07:12:36;3.20;99.90
6110;DHT22;3085;49.444;11.054;2022-11-20T07:15:03;3.20;99.90
6110;DHT22;3085;49.444;11.054;2022-11-20T07:17:30;3.20;99.90
6110;DHT22;3085;49.444;11.054;2022-11-20T07:19:57;3.30;99.90
6110;DHT22;3085;49.444;11.054;2022-11-20T07:22:24;3.20;99.90
6110;DHT22;3085;49.444;11.054;2022-11-20T07:24:51;3.10;99.90
6110;DHT22;3085;49.444;11.054;2022-11-20T07:27:19;3.20;99.90
6110;DHT22;3085;49.444;11.054;2022-11-20T07:29:47;3.10;99.90
6110;DHT22;3085;49.444;11.054;2022-11-20T07:32:14;3.10;99.90
6110;DHT22;3085;49.444;11.054;2022-11-20T07:34:41;3.10;99.90
6110;DHT22;3085;49.444;11.054;2022-11-20T07:37:10;3.20;99.90
6110;DHT22;3085;49.444;11.054;2022-11-20T07:39:37;3.20;99.90
6110;DHT22;3085;49.444;11.054;2022-11-20T07:42:04;3.30;99.90
6110;DHT22;3085;49.444;11.054;2022-11-20T07:44:31;3.30;99.90
6110;DHT22;3085;49.444;11.054;2022-11-20T07:46:59;4.00;99.90
6110;DHT22;3085;49.444;11.054;2022-11-20T07:49:27;3.90;99.90
6110;DHT22;3085;49.444;11.054;2022-11-20T07:51:54;3.40;99.90
6110;DHT22;3085;49.444;11.054;2022-11-20T07:54:21;4.10;99.90
6110;DHT22;3085;49.444;11.054;2022-11-20T07:56:48;3.30;99.90
6110;DHT22;3085;49.444;11.054;2022-11-20T07:59:15;3.40;99.90
6110;DHT22;3085;49.444;11.054;2022-11-20T08:01:42;3.40;99.90
6110;DHT22;3085;49.444;11.054;2022-11-20T08:04:11;3.50;99.90
6110;DHT22;3085;49.444;11.054;2022-11-20T08:06:37;3.50;99.90
6110;DHT22;3085;49.444;11.054;2022-11-20T08:09:04;3.50;99.90
6110;DHT22;3085;49.444;11.054;2022-11-20T08:11:31;3.50;99.90
6110;DHT22;3085;49.444;11.054;2022-11-20T08:14:15;3.40;99.90
6110;DHT22;3085;49.444;11.054;2022-11-20T08:16:44;3.50;99.90
6110;DHT22;3085;49.444;11.054;2022-11-20T08:19:13;3.50;99.90
6110;DHT22;3085;49.444;11.054;2022-11-20T08:21:40;3.60;99.90
6110;DHT22;3085;49.444;11.054;2022-11-20T08:24:08;3.60;99.90
6110;DHT22;3085;49.444;11.054;2022-11-20T08:26:36;3.60;99.90
6110;DHT22;3085;49.444;11.054;2022-11-20T08:29:07;3.60;99.90
6110;DHT22;3085;49.444;11.054;2022-11-20T08:31:34;3.70;99.90
6110;DHT22;3085;49.444;11.054;2022-11-20T08:34:01;3.70;99.90
6110;DHT22;3085;49.444;11.054;2022-11-20T08:36:32;3.70;99.90
6110;DHT22;3085;49.444;11.054;2022-11-20T08:38:59;3.70;99.90
6110;DHT22;3085;49.444;11.054;2022-11-20T08:41:29;3.70;99.90
6110;DHT22;3085;49.444;11.054;2022-11-20T08:44:02;3.80;99.90
6110;DHT22;3085;49.444;11.054;2022-11-20T08:46:32;3.80;99.90
6110;DHT22;3085;49.444;11.054;2022-11-20T08:49:02;3.70;99.90
6110;DHT22;3085;49.444;11.054;2022-11-20T08:51:30;3.70;99.90
6110;DHT22;3085;49.444;11.054;2022-11-20T08:53:58;3.80;99.90
6110;DHT22;3085;49.444;11.054;2022-11-20T08:56:25;3.80;99.90
6110;DHT22;3085;49.444;11.054;2022-11-20T08:58:53;3.70;99.90
6110;DHT22;3085;49.444;11.054;2022-11-20T09:01:20;3.70;99.90
6110;DHT22;3085;49.444;11.054;2022-11-20T09:03:49;3.80;99.90
6110;DHT22;3085;49.444;11.054;2022-11-20T09:06:18;3.70;99.90
6110;DHT22;3085;49.444;11.054;2022-11-20T09:08:51;3.80;99.90
6110;DHT22;3085;49.444;11.054;2022-11-20T09:11:34;3.70;99.90
6110;DHT22;3085;49.444;11.054;2022-11-20T09:14:01;3.70;99.90
6110;DHT22;3085;49.444;11.054;2022-11-20T09:16:28;3.80;99.90
6110;DHT22;3085;49.444;11.054;2022-11-20T09:18:55;3.60;99.90
6110;DHT22;3085;49.444;11.054;2022-11-20T09:21:22;3.50;99.90
6110;DHT22;3085;49.444;11.054;2022-11-20T09:23:51;3.60;99.90
6110;DHT22;3085;49.444;11.054;2022-11-20T09:26:18;4.00;99.90
6110;DHT22;3085;49.444;11.054;2022-11-20T09:28:45;3.70;99.90
6110;DHT22;3085;49.444;11.054;2022-11-20T09:31:19;3.70;99.90
6110;DHT22;3085;49.444;11.054;2022-11-20T09:33:47;3.80;99.90
6110;DHT22;3085;49.444;11.054;2022-11-20T09:36:14;4.00;99.90
6110;DHT22;3085;49.444;11.054;2022-11-20T09:38:42;3.80;99.90
6110;DHT22;3085;49.444;11.054;2022-11-20T09:41:27;3.90;99.90
6110;DHT22;3085;49.444;11.054;2022-11-20T09:44:01;4.10;99.90
6110;DHT22;3085;49.444;11.054;2022-11-20T09:46:38;4.00;99.90
6110;DHT22;3085;49.444;11.054;2022-11-20T09:49:22;4.00;99.90
6110;DHT22;3085;49.444;11.054;2022-11-20T09:51:56;4.00;99.90
6110;DHT22;3085;49.444;11.054;2022-11-20T09:54:35;4.00;99.90
6110;DHT22;3085;49.444;11.054;2022-11-20T09:57:10;3.80;99.90
6110;DHT22;3085;49.444;11.054;2022-11-20T09:59:40;4.10;99.90
6110;DHT22;3085;49.444;11.054;2022-11-20T10:02:16;4.20;99.90
6110;DHT22;3085;49.444;11.054;2022-11-20T10:04:52;4.10;99.90
6110;DHT22;3085;49.444;11.054;2022-11-20T10:07:24;4.10;99.90
6110;DHT22;3085;49.444;11.054;2022-11-20T10:09:55;4.20;99.90
6110;DHT22;3085;49.444;11.054;2022-11-20T10:12:30;4.10;99.90
6110;DHT22;3085;49.444;11.054;2022-11-20T10:15:17;4.10;99.90
6110;DHT22;3085;49.444;11.054;2022-11-20T10:18:06;4.30;99.90
6110;DHT22;3085;49.444;11.054;2022-11-20T10:20:43;4.40;99.90
6110;DHT22;3085;49.444;11.054;2022-11-20T10:23:30;4.40;99.90
6110;DHT22;3085;49.444;11.054;2022-11-20T10:26:02;4.50;99.90
6110;DHT22;3085;49.444;11.054;2022-11-20T10:28:45;4.40;99.90
6110;DHT22;3085;49.444;11.054;2022-11-20T10:31:25;4.50;99.90
6110;DHT22;3085;49.444;11.054;2022-11-20T10:33:54;4.50;99.90
6110;DHT22;3085;49.444;11.054;2022-11-20T10:36:27;4.40;99.90
6110;DHT22;3085;49.444;11.054;2022-11-20T10:38:58;4.40;99.90
6110;DHT22;3085;49.444;11.054;2022-11-20T10:41:32;4.40;99.90
6110;DHT22;3085;49.444;11.054;2022-11-20T10:44:05;4.50;99.90
6110;DHT22;3085;49.444;11.054;2022-11-20T10:46:39;4.40;99.90
6110;DHT22;3085;49.444;11.054;2022-11-20T10:49:15;4.50;99.90
6110;DHT22;3085;49.444;11.054;2022-11-20T10:51:52;4.60;99.90
6110;DHT22;3085;49.444;11.054;2022-11-20T10:54:29;4.70;99.90
6110;DHT22;3085;49.444;11.054;2022-11-20T10:57:03;4.80;99.90
6110;DHT22;3085;49.444;11.054;2022-11-20T10:59:59;4.80;99.90
6110;DHT22;3085;49.444;11.054;2022-11-20T11:02:33;4.70;99.90
6110;DHT22;3085;49.444;11.054;2022-11-20T11:05:08;4.80;99.90
6110;DHT22;3085;49.444;11.054;2022-11-20T11:07:39;4.80;99.90
6110;DHT22;3085;49.444;11.054;2022-11-20T11:10:15;4.90;99.90
6110;DHT22;3085;49.444;11.054;2022-11-20T11:12:44;4.70;99.90
6110;DHT22;3085;49.444;11.054;2022-11-20T11:15:24;4.90;99.90
6110;DHT22;3085;49.444;11.054;2022-11-20T11:17:52;4.80;99.90
6110;DHT22;3085;49.444;11.054;2022-11-20T11:20:20;4.90;99.90
6110;DHT22;3085;49.444;11.054;2022-11-20T11:22:49;4.90;99.90
6110;DHT22;3085;49.444;11.054;2022-11-20T11:25:26;4.90;99.90
6110;DHT22;3085;49.444;11.054;2022-11-20T11:27:56;4.70;99.90
6110;DHT22;3085;49.444;11.054;2022-11-20T11:30:25;3.90;99.90
6110;DHT22;3085;49.444;11.054;2022-11-20T11:33:03;3.60;99.90
6110;DHT22;3085;49.444;11.054;2022-11-20T11:35:31;3.40;99.90
6110;DHT22;3085;49.444;11.054;2022-11-20T11:38:04;3.50;99.90
6110;DHT22;3085;49.444;11.054;2022-11-20T11:40:32;3.50;99.90
6110;DHT22;3085;49.444;11.054;2022-11-20T11:43:02;3.50;99.90
6110;DHT22;3085;49.444;11.054;2022-11-20T11:45:31;3.60;99.90
6110;DHT22;3085;49.444;11.054;2022-11-20T11:47:58;3.70;99.90
6110;DHT22;3085;49.444;11.054;2022-11-20T11:50:28;3.60;99.90
6110;DHT22;3085;49.444;11.054;2022-11-20T11:53:03;3.70;99.90
6110;DHT22;3085;49.444;11.054;2022-11-20T11:55:34;3.80;99.90
6110;DHT22;3085;49.444;11.054;2022-11-20T11:58:14;3.80;99.90
6110;DHT22;3085;49.444;11.054;2022-11-20T12:00:51;3.70;99.90
6110;DHT22;3085;49.444;11.054;2022-11-20T12:03:27;3.80;99.90
6110;DHT22;3085;49.444;11.054;2022-11-20T12:05:57;3.80;99.90
6110;DHT22;3085;49.444;11.054;2022-11-20T12:08:30;4.10;99.90
6110;DHT22;3085;49.444;11.054;2022-11-20T12:11:03;4.00;99.90
6110;DHT22;3085;49.444;11.054;2022-11-20T12:13:38;4.00;99.90
6110;DHT22;3085;49.444;11.054;2022-11-20T12:16:12;4.00;99.90
6110;DHT22;3085;49.444;11.054;2022-11-20T12:18:39;4.10;99.90
6110;DHT22;3085;49.444;11.054;2022-11-20T12:21:17;4.10;99.90
6110;DHT22;3085;49.444;11.054;2022-11-20T12:24:00;4.10;99.90
6110;DHT22;3085;49.444;11.054;2022-11-20T12:26:40;4.10;99.90
6110;DHT22;3085;49.444;11.054;2022-11-20T12:29:15;4.10;99.90
6110;DHT22;3085;49.444;11.054;2022-11-20T12:31:57;4.10;99.90
6110;DHT22;3085;49.444;11.054;2022-11-20T12:34:45;4.00;99.90
6110;DHT22;3085;49.444;11.054;2022-11-20T12:37:25;4.20;99.90
6110;DHT22;3085;49.444;11.054;2022-11-20T12:40:02;4.10;99.90
6110;DHT22;3085;49.444;11.054;2022-11-20T12:42:46;4.20;99.90
6110;DHT22;3085;49.444;11.054;2022-11-20T12:48:53;4.30;99.90
6110;DHT22;3085;49.444;11.054;2022-11-20T12:51:38;4.30;99.90
6110;DHT22;3085;49.444;11.054;2022-11-20T12:54:42;4.30;99.90
6110;DHT22;3085;49.444;11.054;2022-11-20T12:57:18;4.30;99.90
6110;DHT22;3085;49.444;11.054;2022-11-20T13:00:10;4.30;99.90
6110;DHT22;3085;49.444;11.054;2022-11-20T13:03:07;4.30;99.90
6110;DHT22;3085;49.444;11.054;2022-11-20T13:05:49;4.30;99.90
6110;DHT22;3085;49.444;11.054;2022-11-20T13:08:21;4.30;99.90
6110;DHT22;3085;49.444;11.054;2022-11-20T13:10:51;4.30;99.90
6110;DHT22;3085;49.444;11.054;2022-11-20T13:13:24;4.30;99.90
6110;DHT22;3085;49.444;11.054;2022-11-20T13:15:57;4.30;99.90
6110;DHT22;3085;49.444;11.054;2022-11-20T13:18:25;4.30;99.90
6110;DHT22;3085;49.444;11.054;2022-11-20T13:20:53;4.30;99.90
6110;DHT22;3085;49.444;11.054;2022-11-20T13:23:24;4.30;99.90
6110;DHT22;3085;49.444;11.054;2022-11-20T13:26:04;4.30;99.90
6110;DHT22;3085;49.444;11.054;2022-11-20T13:28:32;4.50;99.90
6110;DHT22;3085;49.444;11.054;2022-11-20T13:30:59;4.40;99.90
6110;DHT22;3085;49.444;11.054;2022-11-20T13:33:29;4.40;99.90
6110;DHT22;3085;49.444;11.054;2022-11-20T13:35:59;4.30;99.90
6110;DHT22;3085;49.444;11.054;2022-11-20T13:38:27;4.40;99.90
6110;DHT22;3085;49.444;11.054;2022-11-20T13:40:55;4.30;99.90
6110;DHT22;3085;49.444;11.054;2022-11-20T13:43:28;4.30;99.90
6110;DHT22;3085;49.444;11.054;2022-11-20T13:45:57;4.30;99.90
6110;DHT22;3085;49.444;11.054;2022-11-20T13:48:26;4.30;99.90
6110;DHT22;3085;49.444;11.054;2022-11-20T13:51:04;4.30;99.90
6110;DHT22;3085;49.444;11.054;2022-11-20T13:56:43;4.30;99.90
6110;DHT22;3085;49.444;11.054;2022-11-20T13:59:34;4.30;99.90
6110;DHT22;3085;49.444;11.054;2022-11-20T14:02:02;4.30;99.90
6110;DHT22;3085;49.444;11.054;2022-11-20T14:04:33;4.30;99.90
6110;DHT22;3085;49.444;11.054;2022-11-20T14:07:05;4.30;99.90
6110;DHT22;3085;49.444;11.054;2022-11-20T14:09:33;4.30;99.90
6110;DHT22;3085;49.444;11.054;2022-11-20T14:12:01;4.30;99.90
6110;DHT22;3085;49.444;11.054;2022-11-20T14:14:30;4.30;99.90
6110;DHT22;3085;49.444;11.054;2022-11-20T14:17:06;4.30;99.90
6110;DHT22;3085;49.444;11.054;2022-11-20T14:19:34;4.30;99.90
6110;DHT22;3085;49.444;11.054;2022-11-20T14:22:17;4.30;99.90
6110;DHT22;3085;49.444;11.054;2022-11-20T14:24:45;4.40;99.90
6110;DHT22;3085;49.444;11.054;2022-11-20T14:27:13;4.40;99.90
6110;DHT22;3085;49.444;11.054;2022-11-20T14:29:41;4.40;99.90
6110;DHT22;3085;49.444;11.054;2022-11-20T14:32:09;4.40;99.90
6110;DHT22;3085;49.444;11.054;2022-11-20T14:34:39;4.40;99.90
6110;DHT22;3085;49.444;11.054;2022-11-20T14:37:13;4.40;99.90
6110;DHT22;3085;49.444;11.054;2022-11-20T14:39:49;4.40;99.90
6110;DHT22;3085;49.444;11.054;2022-11-20T14:42:19;4.40;99.90
6110;DHT22;3085;49.444;11.054;2022-11-20T14:44:48;4.40;99.90
6110;DHT22;3085;49.444;11.054;2022-11-20T14:47:18;4.40;99.90
6110;DHT22;3085;49.444;11.054;2022-11-20T14:49:45;4.30;99.90
6110;DHT22;3085;49.444;11.054;2022-11-20T14:52:16;4.30;99.90
6110;DHT22;3085;49.444;11.054;2022-11-20T14:54:45;4.30;99.90
6110;DHT22;3085;49.444;11.054;2022-11-20T14:57:22;4.30;99.90
6110;DHT22;3085;49.444;11.054;2022-11-20T14:59:49;4.30;99.90
6110;DHT22;3085;49.444;11.054;2022-11-20T15:02:17;4.40;99.90
6110;DHT22;3085;49.444;11.054;2022-11-20T15:04:47;4.40;99.90
6110;DHT22;3085;49.444;11.054;2022-11-20T15:07:25;4.40;99.90
6110;DHT22;3085;49.444;11.054;2022-11-20T15:10:04;4.40;99.90
6110;DHT22;3085;49.444;11.054;2022-11-20T15:12:31;4.40;99.90
6110;DHT22;3085;49.444;11.054;2022-11-20T15:14:59;4.40;99.90
6110;DHT22;3085;49.444;11.054;2022-11-20T15:17:27;4.40;99.90
6110;DHT22;3085;49.444;11.054;2022-11-20T15:19:54;4.40;99.90
6110;DHT22;3085;49.444;11.054;2022-11-20T15:22:21;4.40;99.90
6110;DHT22;3085;49.444;11.054;2022-11-20T15:24:50;4.40;99.90
6110;DHT22;3085;49.444;11.054;2022-11-20T15:27:16;4.40;99.90
6110;DHT22;3085;49.444;11.054;2022-11-20T15:29:43;4.50;99.90
6110;DHT22;3085;49.444;11.054;2022-11-20T15:32:10;4.50;99.90
6110;DHT22;3085;49.444;11.054;2022-11-20T15:34:37;4.50;99.90
6110;DHT22;3085;49.444;11.054;2022-11-20T15:37:04;4.60;99.90
6110;DHT22;3085;49.444;11.054;2022-11-20T15:39:30;4.60;99.90
6110;DHT22;3085;49.444;11.054;2022-11-20T15:41:59;4.60;99.90
6110;DHT22;3085;49.444;11.054;2022-11-20T15:44:25;4.60;99.90
6110;DHT22;3085;49.444;11.054;2022-11-20T15:46:52;4.60;99.90
6110;DHT22;3085;49.444;11.054;2022-11-20T15:49:19;4.60;99.90
6110;DHT22;3085;49.444;11.054;2022-11-20T15:51:49;4.60;99.90
6110;DHT22;3085;49.444;11.054;2022-11-20T15:54:19;4.70;99.90
6110;DHT22;3085;49.444;11.054;2022-11-20T15:56:46;4.70;99.90
6110;DHT22;3085;49.444;11.054;2022-11-20T15:59:15;4.70;99.90
6110;DHT22;3085;49.444;11.054;2022-11-20T16:01:41;4.60;99.90
6110;DHT22;3085;49.444;11.054;2022-11-20T16:04:11;4.60;99.90
6110;DHT22;3085;49.444;11.054;2022-11-20T16:06:38;4.60;99.90
6110;DHT22;3085;49.444;11.054;2022-11-20T16:09:05;4.60;99.90
6110;DHT22;3085;49.444;11.054;2022-11-20T16:11:32;4.60;99.90
6110;DHT22;3085;49.444;11.054;2022-11-20T16:13:59;4.60;99.90
6110;DHT22;3085;49.444;11.054;2022-11-20T16:16:44;4.70;99.90
6110;DHT22;3085;49.444;11.054;2022-11-20T16:19:12;4.70;99.90
6110;DHT22;3085;49.444;11.054;2022-11-20T16:21:39;4.70;99.90
6110;DHT22;3085;49.444;11.054;2022-11-20T16:24:08;4.80;99.90
6110;DHT22;3085;49.444;11.054;2022-11-20T16:26:36;4.80;99.90